sensor_id;sensor_type;location;lat;lon;timestamp;pressure;altitude;pressure_sealevel;temperature;humidity
72157;BME280;60035;52.122;5.406;2022-10-17T00:00:32;101834.00;;;13.58;94.20
72157;BME280;60035;52.122;5.406;2022-10-17T00:02:59;101829.78;;;13.56;93.82
72157;BME280;60035;52.122;5.406;2022-10-17T00:05:25;101834.91;;;13.56;93.90
72157;BME280;60035;52.122;5.406;2022-10-17T00:07:52;101839.34;;;13.50;93.83
72157;BME280;60035;52.122;5.406;2022-10-17T00:10:20;101839.34;;;13.50;93.97
72157;BME280;60035;52.122;5.406;2022-10-17T00:12:47;101836.84;;;13.47;93.90
72157;BME280;60035;52.122;5.406;2022-10-17T00:15:15;101826.66;;;13.44;94.29
72157;BME280;60035;52.122;5.406;2022-10-17T00:17:43;101814.72;;;13.42;93.73
72157;BME280;60035;52.122;5.406;2022-10-17T00:20:10;101819.03;;;13.40;93.81
72157;BME280;60035;52.122;5.406;2022-10-17T00:22:36;101821.66;;;13.38;94.19
72157;BME280;60035;52.122;5.406;2022-10-17T00:25:03;101818.25;;;13.36;94.27
72157;BME280;60035;52.122;5.406;2022-10-17T00:27:30;101823.41;;;13.34;94.56
72157;BME280;60035;52.122;5.406;2022-10-17T00:29:59;101812.28;;;13.34;94.59
72157;BME280;60035;52.122;5.406;2022-10-17T00:32:25;101810.66;;;13.31;94.63
72157;BME280;60035;52.122;5.406;2022-10-17T00:34:52;101808.94;;;13.30;94.94
72157;BME280;60035;52.122;5.406;2022-10-17T00:37:18;101807.31;;;13.28;95.10
72157;BME280;60035;52.122;5.406;2022-10-17T00:39:45;101804.72;;;13.28;94.80
72157;BME280;60035;52.122;5.406;2022-10-17T00:42:12;101813.31;;;13.28;94.87
72157;BME280;60035;52.122;5.406;2022-10-17T00:47:08;101807.31;;;13.28;95.35
72157;BME280;60035;52.122;5.406;2022-10-17T00:49:37;101802.16;;;13.28;95.49
72157;BME280;60035;52.122;5.406;2022-10-17T00:52:08;101801.31;;;13.27;95.49
72157;BME280;60035;52.122;5.406;2022-10-17T00:54:49;101802.19;;;13.26;95.43
72157;BME280;60035;52.122;5.406;2022-10-17T00:57:16;101810.75;;;13.27;95.33
72157;BME280;60035;52.122;5.406;2022-10-17T00:59:47;101804.78;;;13.26;95.38
72157;BME280;60035;52.122;5.406;2022-10-17T01:02:17;101796.22;;;13.26;95.51
72157;BME280;60035;52.122;5.406;2022-10-17T01:04:47;101806.50;;;13.26;95.42
72157;BME280;60035;52.122;5.406;2022-10-17T01:07:13;101791.91;;;13.26;95.38
72157;BME280;60035;52.122;5.406;2022-10-17T01:09:42;101797.94;;;13.25;95.40
72157;BME280;60035;52.122;5.406;2022-10-17T01:15:12;101777.34;;;13.25;95.32
72157;BME280;60035;52.122;5.406;2022-10-17T01:18:03;101786.75;;;13.26;95.47
72157;BME280;60035;52.122;5.406;2022-10-17T01:23:29;101775.59;;;13.27;95.46
72157;BME280;60035;52.122;5.406;2022-10-17T01:29:12;101784.19;;;13.26;95.64
72157;BME280;60035;52.122;5.406;2022-10-17T01:31:51;101773.06;;;13.26;95.51
72157;BME280;60035;52.122;5.406;2022-10-17T01:35:24;101776.53;;;13.25;95.18
72157;BME280;60035;52.122;5.406;2022-10-17T01:37:27;101773.13;;;13.24;95.47
72157;BME280;60035;52.122;5.406;2022-10-17T01:40:07;101766.28;;;13.23;95.68
72157;BME280;60035;52.122;5.406;2022-10-17T01:42:58;101770.56;;;13.23;95.85
72157;BME280;60035;52.122;5.406;2022-10-17T01:45:33;101772.25;;;13.24;95.95
72157;BME280;60035;52.122;5.406;2022-10-17T01:48:11;101776.53;;;13.25;96.15
72157;BME280;60035;52.122;5.406;2022-10-17T01:50:47;101767.13;;;13.24;96.31
72157;BME280;60035;52.122;5.406;2022-10-17T01:53:21;101766.22;;;13.25;96.57
72157;BME280;60035;52.122;5.406;2022-10-17T01:55:51;101762.78;;;13.26;96.65
72157;BME280;60035;52.122;5.406;2022-10-17T01:58:24;101764.50;;;13.25;96.81
72157;BME280;60035;52.122;5.406;2022-10-17T02:00:55;101749.03;;;13.27;96.81
72157;BME280;60035;52.122;5.406;2022-10-17T02:03:24;101740.44;;;13.28;96.91
72157;BME280;60035;52.122;5.406;2022-10-17T02:05:53;101740.38;;;13.29;96.91
72157;BME280;60035;52.122;5.406;2022-10-17T02:08:40;101731.78;;;13.30;97.21
72157;BME280;60035;52.122;5.406;2022-10-17T02:17:04;101714.50;;;13.37;97.69
72157;BME280;60035;52.122;5.406;2022-10-17T02:20:08;101720.50;;;13.38;97.91
72157;BME280;60035;52.122;5.406;2022-10-17T02:22:42;101716.19;;;13.38;97.96
72157;BME280;60035;52.122;5.406;2022-10-17T02:25:20;101717.81;;;13.41;97.88
72157;BME280;60035;52.122;5.406;2022-10-17T02:27:55;101717.00;;;13.40;98.06
72157;BME280;60035;52.122;5.406;2022-10-17T02:30:36;101714.38;;;13.42;97.96
72157;BME280;60035;52.122;5.406;2022-10-17T02:33:09;101722.94;;;13.42;98.15
72157;BME280;60035;52.122;5.406;2022-10-17T02:35:41;101722.88;;;13.44;98.18
72157;BME280;60035;52.122;5.406;2022-10-17T02:38:10;101713.50;;;13.43;98.33
72157;BME280;60035;52.122;5.406;2022-10-17T02:40:38;101710.00;;;13.44;98.34
72157;BME280;60035;52.122;5.406;2022-10-17T02:43:06;101710.06;;;13.42;98.30
72157;BME280;60035;52.122;5.406;2022-10-17T02:45:33;101696.38;;;13.42;98.50
72157;BME280;60035;52.122;5.406;2022-10-17T02:48:05;101708.38;;;13.41;98.19
72157;BME280;60035;52.122;5.406;2022-10-17T02:53:28;101699.81;;;13.41;98.32
72157;BME280;60035;52.122;5.406;2022-10-17T02:55:58;101709.28;;;13.40;98.31
72157;BME280;60035;52.122;5.406;2022-10-17T02:58:30;101707.59;;;13.39;98.29
72157;BME280;60035;52.122;5.406;2022-10-17T03:00:59;101710.16;;;13.39;98.50
72157;BME280;60035;52.122;5.406;2022-10-17T03:03:30;101712.78;;;13.38;98.68
72157;BME280;60035;52.122;5.406;2022-10-17T03:05:57;101723.06;;;13.38;98.71
72157;BME280;60035;52.122;5.406;2022-10-17T03:08:24;101714.44;;;13.40;98.82
72157;BME280;60035;52.122;5.406;2022-10-17T03:10:50;101723.81;;;13.41;98.98
72157;BME280;60035;52.122;5.406;2022-10-17T03:13:17;101722.94;;;13.42;98.96
72157;BME280;60035;52.122;5.406;2022-10-17T03:15:43;101715.09;;;13.47;99.32
72157;BME280;60035;52.122;5.406;2022-10-17T03:18:10;101720.06;;;13.53;99.45
72157;BME280;60035;52.122;5.406;2022-10-17T03:20:36;101720.56;;;13.66;99.64
72157;BME280;60035;52.122;5.406;2022-10-17T03:23:03;101719.41;;;13.76;99.97
72157;BME280;60035;52.122;5.406;2022-10-17T03:25:29;101720.03;;;13.85;100.00
72157;BME280;60035;52.122;5.406;2022-10-17T03:27:59;101712.88;;;13.94;100.00
72157;BME280;60035;52.122;5.406;2022-10-17T03:30:27;101711.81;;;14.02;100.00
72157;BME280;60035;52.122;5.406;2022-10-17T03:32:54;101714.22;;;14.08;100.00
72157;BME280;60035;52.122;5.406;2022-10-17T03:35:22;101722.59;;;14.14;100.00
72157;BME280;60035;52.122;5.406;2022-10-17T03:37:48;101729.28;;;14.20;100.00
72157;BME280;60035;52.122;5.406;2022-10-17T03:40:15;101728.34;;;14.23;100.00
72157;BME280;60035;52.122;5.406;2022-10-17T03:42:41;101727.38;;;14.27;100.00
72157;BME280;60035;52.122;5.406;2022-10-17T03:45:08;101729.88;;;14.28;100.00
72157;BME280;60035;52.122;5.406;2022-10-17T03:47:35;101736.63;;;14.32;100.00
72157;BME280;60035;52.122;5.406;2022-10-17T03:50:01;101738.28;;;14.35;100.00
72157;BME280;60035;52.122;5.406;2022-10-17T03:52:28;101737.44;;;14.35;100.00
72157;BME280;60035;52.122;5.406;2022-10-17T03:54:54;101736.56;;;14.36;100.00
72157;BME280;60035;52.122;5.406;2022-10-17T03:57:20;101734.03;;;14.34;100.00
72157;BME280;60035;52.122;5.406;2022-10-17T03:59:49;101734.03;;;14.34;100.00
72157;BME280;60035;52.122;5.406;2022-10-17T04:02:15;101729.75;;;14.33;100.00
72157;BME280;60035;52.122;5.406;2022-10-17T04:04:42;101729.72;;;14.35;100.00
72157;BME280;60035;52.122;5.406;2022-10-17T04:07:08;101727.97;;;14.35;100.00
72157;BME280;60035;52.122;5.406;2022-10-17T04:09:35;101721.97;;;14.35;100.00
72157;BME280;60035;52.122;5.406;2022-10-17T04:12:01;101724.56;;;14.35;100.00
72157;BME280;60035;52.122;5.406;2022-10-17T04:14:27;101729.72;;;14.35;100.00
72157;BME280;60035;52.122;5.406;2022-10-17T04:16:54;101739.13;;;14.36;100.00
72157;BME280;60035;52.122;5.406;2022-10-17T04:19:20;101728.81;;;14.36;100.00
72157;BME280;60035;52.122;5.406;2022-10-17T04:21:46;101742.59;;;14.35;100.00
72157;BME280;60035;52.122;5.406;2022-10-17T04:24:13;101740.00;;;14.35;100.00
72157;BME280;60035;52.122;5.406;2022-10-17T04:26:39;101751.19;;;14.33;100.00
72157;BME280;60035;52.122;5.406;2022-10-17T04:29:06;101747.84;;;14.31;100.00
72157;BME280;60035;52.122;5.406;2022-10-17T04:31:32;101741.00;;;14.30;100.00
72157;BME280;60035;52.122;5.406;2022-10-17T04:33:59;101742.81;;;14.27;100.00
72157;BME280;60035;52.122;5.406;2022-10-17T04:36:25;101744.56;;;14.26;100.00
72157;BME280;60035;52.122;5.406;2022-10-17T04:38:51;101746.22;;;14.27;100.00
72157;BME280;60035;52.122;5.406;2022-10-17T04:41:18;101745.41;;;14.27;100.00
72157;BME280;60035;52.122;5.406;2022-10-17T04:43:44;101745.41;;;14.27;100.00
72157;BME280;60035;52.122;5.406;2022-10-17T04:46:16;101755.69;;;14.27;100.00
72157;BME280;60035;52.122;5.406;2022-10-17T04:48:43;101755.66;;;14.28;100.00
72157;BME280;60035;52.122;5.406;2022-10-17T04:51:12;101766.72;;;14.32;100.00
72157;BME280;60035;52.122;5.406;2022-10-17T04:53:39;101765.84;;;14.33;100.00
72157;BME280;60035;52.122;5.406;2022-10-17T04:56:13;101769.19;;;14.35;100.00
72157;BME280;60035;52.122;5.406;2022-10-17T04:58:41;101765.69;;;14.38;100.00
72157;BME280;60035;52.122;5.406;2022-10-17T05:01:10;101771.59;;;14.41;100.00
72157;BME280;60035;52.122;5.406;2022-10-17T05:03:37;101773.22;;;14.44;100.00
72157;BME280;60035;52.122;5.406;2022-10-17T05:06:09;101767.19;;;14.45;100.00
72157;BME280;60035;52.122;5.406;2022-10-17T05:08:36;101769.75;;;14.45;100.00
72157;BME280;60035;52.122;5.406;2022-10-17T05:11:03;101770.59;;;14.45;100.00
72157;BME280;60035;52.122;5.406;2022-10-17T05:13:31;101768.91;;;14.44;100.00
72157;BME280;60035;52.122;5.406;2022-10-17T05:15:59;101774.91;;;14.45;100.00
72157;BME280;60035;52.122;5.406;2022-10-17T05:18:27;101767.19;;;14.45;100.00
72157;BME280;60035;52.122;5.406;2022-10-17T05:20:53;101763.69;;;14.47;100.00
72157;BME280;60035;52.122;5.406;2022-10-17T05:23:20;101762.75;;;14.50;100.00
72157;BME280;60035;52.122;5.406;2022-10-17T05:25:47;101774.69;;;14.53;100.00
72157;BME280;60035;52.122;5.406;2022-10-17T05:28:13;101763.38;;;14.57;100.00
72157;BME280;60035;52.122;5.406;2022-10-17T05:30:40;101770.19;;;14.59;100.00
72157;BME280;60035;52.122;5.406;2022-10-17T05:33:06;101773.47;;;14.63;100.00
72157;BME280;60035;52.122;5.406;2022-10-17T05:35:33;101787.22;;;14.65;100.00
72157;BME280;60035;52.122;5.406;2022-10-17T05:37:59;101783.75;;;14.66;100.00
72157;BME280;60035;52.122;5.406;2022-10-17T05:40:26;101779.38;;;14.68;100.00
72157;BME280;60035;52.122;5.406;2022-10-17T05:42:52;101793.97;;;14.69;100.00
72157;BME280;60035;52.122;5.406;2022-10-17T05:45:19;101793.06;;;14.70;100.00
72157;BME280;60035;52.122;5.406;2022-10-17T05:47:46;101797.34;;;14.71;100.00
72157;BME280;60035;52.122;5.406;2022-10-17T05:50:13;101792.97;;;14.73;100.00
72157;BME280;60035;52.122;5.406;2022-10-17T05:52:39;101785.28;;;14.72;100.00
72157;BME280;60035;52.122;5.406;2022-10-17T05:55:10;101783.59;;;14.71;100.00
72157;BME280;60035;52.122;5.406;2022-10-17T05:57:37;101777.59;;;14.70;100.00
72157;BME280;60035;52.122;5.406;2022-10-17T06:00:04;101773.28;;;14.71;100.00
72157;BME280;60035;52.122;5.406;2022-10-17T06:02:31;101772.38;;;14.72;100.00
72157;BME280;60035;52.122;5.406;2022-10-17T06:04:58;101768.94;;;14.73;100.00
72157;BME280;60035;52.122;5.406;2022-10-17T06:07:24;101774.97;;;14.72;100.00
72157;BME280;60035;52.122;5.406;2022-10-17T06:09:51;101787.84;;;14.72;100.00
72157;BME280;60035;52.122;5.406;2022-10-17T06:12:17;101789.56;;;14.73;100.00
72157;BME280;60035;52.122;5.406;2022-10-17T06:14:44;101791.19;;;14.75;100.00
72157;BME280;60035;52.122;5.406;2022-10-17T06:17:10;101793.78;;;14.75;100.00
72157;BME280;60035;52.122;5.406;2022-10-17T06:19:41;101793.78;;;14.75;100.00
72157;BME280;60035;52.122;5.406;2022-10-17T06:22:09;101783.47;;;14.75;100.00
72157;BME280;60035;52.122;5.406;2022-10-17T06:24:35;101790.34;;;14.75;100.00
72157;BME280;60035;52.122;5.406;2022-10-17T06:27:02;101801.44;;;14.77;100.00
72157;BME280;60035;52.122;5.406;2022-10-17T06:29:34;101815.16;;;14.77;100.00
72157;BME280;60035;52.122;5.406;2022-10-17T06:32:00;101815.97;;;14.79;100.00
72157;BME280;60035;52.122;5.406;2022-10-17T06:34:27;101813.28;;;14.82;100.00
72157;BME280;60035;52.122;5.406;2022-10-17T06:36:53;101827.81;;;14.85;100.00
72157;BME280;60035;52.122;5.406;2022-10-17T06:39:20;101826.94;;;14.86;100.00
72157;BME280;60035;52.122;5.406;2022-10-17T06:41:46;101821.72;;;14.88;100.00
72157;BME280;60035;52.122;5.406;2022-10-17T06:44:13;101826.00;;;14.89;100.00
72157;BME280;60035;52.122;5.406;2022-10-17T06:46:39;101826.75;;;14.92;100.00
72157;BME280;60035;52.122;5.406;2022-10-17T06:49:08;101830.06;;;14.96;100.00
72157;BME280;60035;52.122;5.406;2022-10-17T06:51:36;101839.44;;;14.98;100.00
72157;BME280;60035;52.122;5.406;2022-10-17T06:54:03;101848.75;;;15.03;100.00
72157;BME280;60035;52.122;5.406;2022-10-17T06:56:29;101852.16;;;15.05;100.00
72157;BME280;60035;52.122;5.406;2022-10-17T06:58:56;101853.84;;;15.06;100.00
72157;BME280;60035;52.122;5.406;2022-10-17T07:01:22;101853.78;;;15.07;100.00
72157;BME280;60035;52.122;5.406;2022-10-17T07:03:48;101853.72;;;15.09;100.00
72157;BME280;60035;52.122;5.406;2022-10-17T07:06:15;101854.56;;;15.09;100.00
72157;BME280;60035;52.122;5.406;2022-10-17T07:08:44;101857.06;;;15.12;100.00
72157;BME280;60035;52.122;5.406;2022-10-17T07:11:17;101857.91;;;15.13;100.00
72157;BME280;60035;52.122;5.406;2022-10-17T07:13:44;101862.16;;;15.14;100.00
72157;BME280;60035;52.122;5.406;2022-10-17T07:16:11;101868.09;;;15.16;100.00
72157;BME280;60035;52.122;5.406;2022-10-17T07:18:38;101872.38;;;15.17;100.00
72157;BME280;60035;52.122;5.406;2022-10-17T07:21:05;101868.84;;;15.20;100.00
72157;BME280;60035;52.122;5.406;2022-10-17T07:23:35;101879.22;;;15.18;100.00
72157;BME280;60035;52.122;5.406;2022-10-17T07:26:04;101879.19;;;15.20;100.00
72157;BME280;60035;52.122;5.406;2022-10-17T07:28:36;101866.22;;;15.21;100.00
72157;BME280;60035;52.122;5.406;2022-10-17T07:31:05;101867.91;;;15.22;100.00
72157;BME280;60035;52.122;5.406;2022-10-17T07:33:32;101858.47;;;15.23;100.00
72157;BME280;60035;52.122;5.406;2022-10-17T07:36:00;101872.19;;;15.23;100.00
72157;BME280;60035;52.122;5.406;2022-10-17T07:38:27;101882.47;;;15.25;100.00
72157;BME280;60035;52.122;5.406;2022-10-17T07:40:55;101880.69;;;15.27;100.00
72157;BME280;60035;52.122;5.406;2022-10-17T07:43:23;101879.75;;;15.28;100.00
72157;BME280;60035;52.122;5.406;2022-10-17T07:45:50;101872.88;;;15.28;100.00
72157;BME280;60035;52.122;5.406;2022-10-17T07:48:17;101884.84;;;15.31;100.00
72157;BME280;60035;52.122;5.406;2022-10-17T07:50:44;101896.00;;;15.31;100.00
72157;BME280;60035;52.122;5.406;2022-10-17T07:53:11;101905.44;;;15.32;100.00
72157;BME280;60035;52.122;5.406;2022-10-17T07:55:38;101920.91;;;15.32;100.00
72157;BME280;60035;52.122;5.406;2022-10-17T07:58:07;101953.63;;;15.32;100.00
72157;BME280;60035;52.122;5.406;2022-10-17T08:00:35;101987.06;;;15.35;100.00
72157;BME280;60035;52.122;5.406;2022-10-17T08:03:02;101999.13;;;15.35;100.00
72157;BME280;60035;52.122;5.406;2022-10-17T08:05:29;102008.50;;;15.37;100.00
72157;BME280;60035;52.122;5.406;2022-10-17T08:07:56;102023.03;;;15.41;100.00
72157;BME280;60035;52.122;5.406;2022-10-17T08:10:23;102026.34;;;15.45;100.00
72157;BME280;60035;52.122;5.406;2022-10-17T08:12:56;102023.63;;;15.49;100.00
72157;BME280;60035;52.122;5.406;2022-10-17T08:15:24;102016.66;;;15.52;100.00
72157;BME280;60035;52.122;5.406;2022-10-17T08:17:57;102020.00;;;15.55;100.00
72157;BME280;60035;52.122;5.406;2022-10-17T08:20:24;102031.88;;;15.61;100.00
72157;BME280;60035;52.122;5.406;2022-10-17T08:22:52;102018.66;;;15.70;100.00
72157;BME280;60035;52.122;5.406;2022-10-17T08:25:18;102003.03;;;15.75;100.00
72157;BME280;60035;52.122;5.406;2022-10-17T08:27:45;102004.59;;;15.80;100.00
72157;BME280;60035;52.122;5.406;2022-10-17T08:30:12;102000.97;;;15.86;100.00
72157;BME280;60035;52.122;5.406;2022-10-17T08:32:38;102000.88;;;15.89;100.00
72157;BME280;60035;52.122;5.406;2022-10-17T08:35:05;102012.94;;;15.89;100.00
72157;BME280;60035;52.122;5.406;2022-10-17T08:37:32;102018.84;;;15.92;100.00
72157;BME280;60035;52.122;5.406;2022-10-17T08:39:59;102023.00;;;15.96;100.00
72157;BME280;60035;52.122;5.406;2022-10-17T08:47:36;102078.78;;;16.04;100.00
72157;BME280;60035;52.122;5.406;2022-10-17T08:50:06;102073.50;;;16.07;100.00
72157;BME280;60035;52.122;5.406;2022-10-17T08:52:44;102091.53;;;16.08;100.00
72157;BME280;60035;52.122;5.406;2022-10-17T08:55:32;102097.56;;;16.09;100.00
72157;BME280;60035;52.122;5.406;2022-10-17T08:58:19;102093.22;;;16.09;100.00
72157;BME280;60035;52.122;5.406;2022-10-17T09:01:02;102071.66;;;16.10;100.00
72157;BME280;60035;52.122;5.406;2022-10-17T09:04:09;102053.63;;;16.09;100.00
72157;BME280;60035;52.122;5.406;2022-10-17T09:06:48;102034.69;;;16.08;100.00
72157;BME280;60035;52.122;5.406;2022-10-17T09:12:14;102009.59;;;16.12;100.00
72157;BME280;60035;52.122;5.406;2022-10-17T09:15:02;101990.50;;;16.16;100.00
72157;BME280;60035;52.122;5.406;2022-10-17T09:20:10;102001.56;;;16.20;100.00
72157;BME280;60035;52.122;5.406;2022-10-17T09:22:42;102003.28;;;16.19;100.00
72157;BME280;60035;52.122;5.406;2022-10-17T09:25:13;102010.22;;;16.19;100.00
72157;BME280;60035;52.122;5.406;2022-10-17T09:28:03;102008.44;;;16.21;100.00
72157;BME280;60035;52.122;5.406;2022-10-17T09:33:16;102061.84;;;16.20;100.00
72157;BME280;60035;52.122;5.406;2022-10-17T09:36:09;102069.66;;;16.19;100.00
72157;BME280;60035;52.122;5.406;2022-10-17T09:38:42;102088.63;;;16.18;100.00
72157;BME280;60035;52.122;5.406;2022-10-17T09:41:17;102088.69;;;16.16;100.00
72157;BME280;60035;52.122;5.406;2022-10-17T09:49:35;102023.13;;;16.19;100.00
72157;BME280;60035;52.122;5.406;2022-10-17T09:52:03;102029.00;;;16.24;100.00
72157;BME280;60035;52.122;5.406;2022-10-17T09:54:46;102033.16;;;16.28;100.00
72157;BME280;60035;52.122;5.406;2022-10-17T09:57:15;102027.88;;;16.31;100.00
72157;BME280;60035;52.122;5.406;2022-10-17T10:00:03;102029.44;;;16.35;100.00
72157;BME280;60035;52.122;5.406;2022-10-17T10:02:30;102037.94;;;16.39;100.00
72157;BME280;60035;52.122;5.406;2022-10-17T10:05:08;102045.56;;;16.43;100.00
72157;BME280;60035;52.122;5.406;2022-10-17T10:07:42;102070.41;;;16.47;100.00
72157;BME280;60035;52.122;5.406;2022-10-17T10:10:30;102074.78;;;16.45;100.00
72157;BME280;60035;52.122;5.406;2022-10-17T10:13:18;102077.38;;;16.45;100.00
72157;BME280;60035;52.122;5.406;2022-10-17T10:15:49;102088.56;;;16.46;100.00
72157;BME280;60035;52.122;5.406;2022-10-17T10:21:05;102105.44;;;16.56;100.00
72157;BME280;60035;52.122;5.406;2022-10-17T10:23:32;102116.53;;;16.60;100.00
72157;BME280;60035;52.122;5.406;2022-10-17T10:26:03;102129.38;;;16.61;100.00
72157;BME280;60035;52.122;5.406;2022-10-17T10:28:33;102131.97;;;16.61;100.00
72157;BME280;60035;52.122;5.406;2022-10-17T10:31:06;102151.84;;;16.61;100.00
72157;BME280;60035;52.122;5.406;2022-10-17T10:33:36;102151.03;;;16.59;100.00
72157;BME280;60035;52.122;5.406;2022-10-17T10:36:07;102148.44;;;16.59;100.00
72157;BME280;60035;52.122;5.406;2022-10-17T10:38:38;102148.50;;;16.57;100.00
72157;BME280;60035;52.122;5.406;2022-10-17T10:41:08;102158.78;;;16.59;100.00
72157;BME280;60035;52.122;5.406;2022-10-17T10:43:40;102157.00;;;16.61;100.00
72157;BME280;60035;52.122;5.406;2022-10-17T10:46:22;102155.16;;;16.64;100.00
72157;BME280;60035;52.122;5.406;2022-10-17T10:48:52;102160.22;;;16.68;100.00
72157;BME280;60035;52.122;5.406;2022-10-17T10:51:26;102154.09;;;16.70;100.00
72157;BME280;60035;52.122;5.406;2022-10-17T10:56:45;102159.34;;;16.69;100.00
72157;BME280;60035;52.122;5.406;2022-10-17T11:02:02;102166.88;;;16.75;100.00
72157;BME280;60035;52.122;5.406;2022-10-17T11:04:39;102174.47;;;16.79;100.00
72157;BME280;60035;52.122;5.406;2022-10-17T11:07:10;102184.63;;;16.86;100.00
72157;BME280;60035;52.122;5.406;2022-10-17T11:12:31;102183.22;;;17.02;100.00
72157;BME280;60035;52.122;5.406;2022-10-17T11:17:34;102182.16;;;17.08;100.00
72157;BME280;60035;52.122;5.406;2022-10-17T11:22:41;102197.13;;;17.23;100.00
72157;BME280;60035;52.122;5.406;2022-10-17T11:27:37;102206.31;;;17.08;100.00
72157;BME280;60035;52.122;5.406;2022-10-17T11:30:04;102208.09;;;17.06;100.00
72157;BME280;60035;52.122;5.406;2022-10-17T11:32:47;102216.84;;;17.02;100.00
72157;BME280;60035;52.122;5.406;2022-10-17T11:35:29;102218.75;;;16.97;100.00
72157;BME280;60035;52.122;5.406;2022-10-17T11:38:25;102228.34;;;16.95;100.00
72157;BME280;60035;52.122;5.406;2022-10-17T11:40:57;102230.22;;;16.90;100.00
72157;BME280;60035;52.122;5.406;2022-10-17T11:43:29;102232.84;;;16.88;100.00
72157;BME280;60035;52.122;5.406;2022-10-17T11:46:09;102225.06;;;16.88;100.00
72157;BME280;60035;52.122;5.406;2022-10-17T11:49:20;102238.84;;;16.89;100.00
72157;BME280;60035;52.122;5.406;2022-10-17T11:51:54;102231.97;;;16.88;100.00
72157;BME280;60035;52.122;5.406;2022-10-17T11:54:40;102238.75;;;16.92;100.00
72157;BME280;60035;52.122;5.406;2022-10-17T12:07:54;102237.13;;;17.14;100.00
72157;BME280;60035;52.122;5.406;2022-10-17T12:15:57;102233.22;;;17.28;100.00
72157;BME280;60035;52.122;5.406;2022-10-17T12:18:43;102232.16;;;17.34;100.00
72157;BME280;60035;52.122;5.406;2022-10-17T12:21:10;102231.09;;;17.39;100.00
72157;BME280;60035;52.122;5.406;2022-10-17T12:23:36;102240.56;;;17.40;100.00
72157;BME280;60035;52.122;5.406;2022-10-17T12:26:08;102245.56;;;17.45;99.67
72157;BME280;60035;52.122;5.406;2022-10-17T12:28:42;102250.84;;;17.42;99.52
72157;BME280;60035;52.122;5.406;2022-10-17T12:38:50;102249.28;;;17.38;98.94
72157;BME280;60035;52.122;5.406;2022-10-17T12:46:48;102265.00;;;17.31;98.72
72157;BME280;60035;52.122;5.406;2022-10-17T12:49:49;102272.06;;;17.28;98.63
72157;BME280;60035;52.122;5.406;2022-10-17T12:58:10;102272.28;;;17.22;98.65
72157;BME280;60035;52.122;5.406;2022-10-17T13:00:52;102276.88;;;17.13;98.61
72157;BME280;60035;52.122;5.406;2022-10-17T13:03:42;102277.72;;;17.14;98.70
72157;BME280;60035;52.122;5.406;2022-10-17T13:06:18;102279.53;;;17.12;98.87
72157;BME280;60035;52.122;5.406;2022-10-17T13:08:51;102286.34;;;17.13;99.16
72157;BME280;60035;52.122;5.406;2022-10-17T13:11:25;102279.34;;;17.17;99.23
72157;BME280;60035;52.122;5.406;2022-10-17T13:13:56;102288.63;;;17.22;99.23
72157;BME280;60035;52.122;5.406;2022-10-17T13:16:30;102293.81;;;17.22;99.19
72157;BME280;60035;52.122;5.406;2022-10-17T13:18:59;102298.22;;;17.20;99.11
72157;BME280;60035;52.122;5.406;2022-10-17T13:21:26;102296.63;;;17.16;98.95
72157;BME280;60035;52.122;5.406;2022-10-17T13:23:52;102300.94;;;17.15;99.18
72157;BME280;60035;52.122;5.406;2022-10-17T13:26:25;102300.75;;;17.22;99.16
72157;BME280;60035;52.122;5.406;2022-10-17T13:29:09;102301.38;;;17.28;99.26
72157;BME280;60035;52.122;5.406;2022-10-17T13:31:41;102315.00;;;17.34;99.16
72157;BME280;60035;52.122;5.406;2022-10-17T13:34:23;102323.63;;;17.34;99.00
72157;BME280;60035;52.122;5.406;2022-10-17T13:37:11;102334.91;;;17.31;98.74
72157;BME280;60035;52.122;5.406;2022-10-17T13:39:43;102329.66;;;17.35;98.76
72157;BME280;60035;52.122;5.406;2022-10-17T13:42:25;102338.91;;;17.42;98.60
72157;BME280;60035;52.122;5.406;2022-10-17T13:44:53;102342.13;;;17.48;98.44
72157;BME280;60035;52.122;5.406;2022-10-17T13:47:26;102349.00;;;17.49;98.24
72157;BME280;60035;52.122;5.406;2022-10-17T13:49:54;102355.88;;;17.51;98.02
72157;BME280;60035;52.122;5.406;2022-10-17T13:52:24;102357.56;;;17.52;97.97
72157;BME280;60035;52.122;5.406;2022-10-17T13:54:53;102361.00;;;17.52;97.64
72157;BME280;60035;52.122;5.406;2022-10-17T13:57:27;102367.97;;;17.50;97.53
72157;BME280;60035;52.122;5.406;2022-10-17T14:00:00;102367.06;;;17.51;97.44
72157;BME280;60035;52.122;5.406;2022-10-17T14:02:29;102369.66;;;17.51;97.44
72157;BME280;60035;52.122;5.406;2022-10-17T14:07:53;102372.19;;;17.53;97.15
72157;BME280;60035;52.122;5.406;2022-10-17T14:10:38;102365.38;;;17.50;96.92
72157;BME280;60035;52.122;5.406;2022-10-17T14:13:06;102367.00;;;17.53;96.68
72157;BME280;60035;52.122;5.406;2022-10-17T14:15:36;102360.03;;;17.55;97.10
72157;BME280;60035;52.122;5.406;2022-10-17T14:18:07;102359.25;;;17.53;96.35
72157;BME280;60035;52.122;5.406;2022-10-17T14:20:35;102355.81;;;17.52;96.39
72157;BME280;60035;52.122;5.406;2022-10-17T14:23:40;102362.63;;;17.55;96.39
72157;BME280;60035;52.122;5.406;2022-10-17T14:26:16;102356.59;;;17.54;96.09
72157;BME280;60035;52.122;5.406;2022-10-17T14:28:45;102355.69;;;17.55;96.28
72157;BME280;60035;52.122;5.406;2022-10-17T14:31:22;102349.56;;;17.58;96.18
72157;BME280;60035;52.122;5.406;2022-10-17T14:33:52;102354.47;;;17.65;96.29
72157;BME280;60035;52.122;5.406;2022-10-17T14:36:28;102350.78;;;17.73;95.95
72157;BME280;60035;52.122;5.406;2022-10-17T14:38:56;102359.97;;;17.81;95.95